AFL022 UUEE-ULLI
Flight info
| Callsign | AFL022 |
|---|---|
| Flight time | 1h 3m |
| Altitude | 32000 |
| Route | TOKNU3H TOKNU L4 NUDKO T561 ODATI T875 GENPA GENPA1B |
| Aircraft | A20N/M-SDE2E3FGHIRWXY/LB1 |
Departure
| Time | 2026-05-04 16:34 |
|---|---|
| Airport | Sheremetyevo International Airport (UUEE) |
Arrival
| Time | 2026-05-04 17:37 |
|---|---|
| Airport | Pulkovo Airport (ULLI) |
| Time | Latitude | Longitude | Altitude | Speed | Heading |
|---|---|---|---|---|---|
| 2026-05-04 15:57 | 55.97961 | 37.41621 | 639 ft | 0 kts | 76° |
| 2026-05-04 16:24 | 55.97952 | 37.41525 | 639 ft | 2 kts | 91° |
| 2026-05-04 16:25 | 55.97965 | 37.41478 | 645 ft | 1 kts | 162° |
| 2026-05-04 16:26 | 55.97969 | 37.41475 | 642 ft | 0 kts | 165° |
| 2026-05-04 16:28 | 55.97969 | 37.41476 | 643 ft | 1 kts | 165° |
| 2026-05-04 16:28 | 55.97742 | 37.41580 | 639 ft | 9 kts | 177° |
| 2026-05-04 16:29 | 55.97654 | 37.41980 | 642 ft | 17 kts | 71° |
| 2026-05-04 16:30 | 55.97735 | 37.42515 | 642 ft | 15 kts | 76° |
| 2026-05-04 16:31 | 55.97722 | 37.42804 | 641 ft | 0 kts | 160° |
| 2026-05-04 16:33 | 55.97671 | 37.42829 | 638 ft | 12 kts | 169° |
| 2026-05-04 16:33 | 55.97583 | 37.42645 | 642 ft | 40 kts | 255° |
| 2026-05-04 16:34 | 55.97147 | 37.39816 | 762 ft | 173 kts | 254° |
| 2026-05-04 16:34 | 55.96784 | 37.37851 | 1730 ft | 164 kts | 248° |
| 2026-05-04 16:35 | 55.95620 | 37.31653 | 3891 ft | 202 kts | 256° |
| 2026-05-04 16:35 | 55.94391 | 37.23300 | 5872 ft | 254 kts | 256° |
| 2026-05-04 16:36 | 55.93916 | 37.20158 | 6571 ft | 268 kts | 256° |
| 2026-05-04 16:36 | 55.92935 | 37.13692 | 6987 ft | 298 kts | 256° |
| 2026-05-04 16:37 | 55.91880 | 37.06720 | 7429 ft | 280 kts | 256° |
| 2026-05-04 16:37 | 55.91607 | 37.03457 | 7816 ft | 270 kts | 274° |
| 2026-05-04 16:37 | 55.93377 | 36.97663 | 9394 ft | 273 kts | 321° |
| 2026-05-04 16:38 | 55.96520 | 36.93736 | 9925 ft | 276 kts | 323° |
| 2026-05-04 16:39 | 56.01787 | 36.88805 | 10285 ft | 314 kts | 340° |
| 2026-05-04 16:39 | 56.06099 | 36.86269 | 11662 ft | 331 kts | 338° |
| 2026-05-04 16:40 | 56.10133 | 36.82193 | 13310 ft | 338 kts | 319° |
| 2026-05-04 16:40 | 56.13610 | 36.76396 | 14840 ft | 345 kts | 316° |
| 2026-05-04 16:41 | 56.17163 | 36.70454 | 15735 ft | 351 kts | 316° |
| 2026-05-04 16:41 | 56.22494 | 36.61512 | 15835 ft | 351 kts | 316° |
| 2026-05-04 16:42 | 56.27883 | 36.52411 | 17589 ft | 358 kts | 315° |
| 2026-05-04 16:43 | 56.31548 | 36.46200 | 18891 ft | 365 kts | 315° |
| 2026-05-04 16:43 | 56.35140 | 36.39649 | 20179 ft | 370 kts | 307° |
| 2026-05-04 16:43 | 56.36563 | 36.35760 | 20797 ft | 373 kts | 298° |
| 2026-05-04 16:44 | 56.40471 | 36.18060 | 23217 ft | 386 kts | 291° |
| 2026-05-04 16:45 | 56.42408 | 36.08906 | 24243 ft | 392 kts | 291° |
| 2026-05-04 16:46 | 56.45769 | 35.95273 | 25685 ft | 400 kts | 302° |
| 2026-05-04 16:46 | 56.49194 | 35.87274 | 26610 ft | 405 kts | 310° |
| 2026-05-04 16:47 | 56.52807 | 35.79423 | 27495 ft | 410 kts | 310° |
| 2026-05-04 16:47 | 56.56491 | 35.71372 | 28326 ft | 415 kts | 310° |
| 2026-05-04 16:48 | 56.62057 | 35.59172 | 29497 ft | 422 kts | 310° |
| 2026-05-04 16:48 | 56.63932 | 35.55050 | 29882 ft | 424 kts | 310° |
| 2026-05-04 16:49 | 56.67678 | 35.46809 | 30525 ft | 428 kts | 310° |
| 2026-05-04 16:49 | 56.71481 | 35.38419 | 31240 ft | 430 kts | 309° |
| 2026-05-04 16:50 | 56.75266 | 35.30033 | 31779 ft | 427 kts | 309° |
| 2026-05-04 16:50 | 56.79019 | 35.21685 | 31794 ft | 425 kts | 309° |
| 2026-05-04 16:51 | 56.84634 | 35.09144 | 31798 ft | 425 kts | 309° |
| 2026-05-04 16:52 | 56.92587 | 34.93138 | 31794 ft | 434 kts | 321° |
| 2026-05-04 16:53 | 57.00281 | 34.83686 | 31786 ft | 448 kts | 326° |
| 2026-05-04 16:54 | 57.10678 | 34.71169 | 31789 ft | 447 kts | 326° |
| 2026-05-04 16:55 | 57.26248 | 34.52240 | 31779 ft | 446 kts | 325° |
| 2026-05-04 16:56 | 57.39185 | 34.36443 | 31771 ft | 445 kts | 325° |
| 2026-05-04 16:57 | 57.46883 | 34.26976 | 31768 ft | 444 kts | 324° |
| 2026-05-04 16:58 | 57.57176 | 34.14239 | 31763 ft | 442 kts | 324° |
| 2026-05-04 17:00 | 57.72520 | 33.95081 | 31759 ft | 441 kts | 324° |
| 2026-05-04 17:01 | 57.85218 | 33.79075 | 31745 ft | 440 kts | 324° |
| 2026-05-04 17:02 | 57.94843 | 33.64942 | 31740 ft | 438 kts | 320° |
| 2026-05-04 17:03 | 58.01951 | 33.54233 | 31741 ft | 438 kts | 319° |
| 2026-05-04 17:03 | 58.09051 | 33.43352 | 31734 ft | 438 kts | 319° |
| 2026-05-04 17:04 | 58.18506 | 33.28759 | 31729 ft | 438 kts | 318° |
| 2026-05-04 17:05 | 58.27907 | 33.14165 | 31723 ft | 437 kts | 318° |
| 2026-05-04 17:06 | 58.34961 | 33.03149 | 31716 ft | 436 kts | 318° |
| 2026-05-04 17:07 | 58.41168 | 32.93408 | 31713 ft | 435 kts | 317° |
| 2026-05-04 17:07 | 58.46621 | 32.84814 | 31708 ft | 435 kts | 317° |
| 2026-05-04 17:08 | 58.53615 | 32.73741 | 31701 ft | 435 kts | 317° |
| 2026-05-04 17:09 | 58.58268 | 32.66342 | 31686 ft | 434 kts | 317° |
| 2026-05-04 17:09 | 58.62919 | 32.58919 | 31685 ft | 434 kts | 316° |
| 2026-05-04 17:10 | 58.73661 | 32.41678 | 30207 ft | 426 kts | 316° |
| 2026-05-04 17:11 | 58.75924 | 32.38029 | 29604 ft | 420 kts | 316° |
| 2026-05-04 17:11 | 58.78163 | 32.34411 | 28599 ft | 420 kts | 316° |
| 2026-05-04 17:11 | 58.82616 | 32.27188 | 26266 ft | 413 kts | 316° |
| 2026-05-04 17:12 | 58.84778 | 32.23677 | 25258 ft | 408 kts | 316° |
| 2026-05-04 17:12 | 58.89063 | 32.16696 | 23277 ft | 398 kts | 315° |
| 2026-05-04 17:13 | 58.95177 | 32.06700 | 21044 ft | 365 kts | 315° |
| 2026-05-04 17:14 | 59.00788 | 31.97472 | 19029 ft | 345 kts | 315° |
| 2026-05-04 17:14 | 59.02604 | 31.94469 | 18395 ft | 347 kts | 315° |
| 2026-05-04 17:14 | 59.06301 | 31.88351 | 17006 ft | 348 kts | 315° |
| 2026-05-04 17:15 | 59.08157 | 31.85280 | 16340 ft | 348 kts | 315° |
| 2026-05-04 17:15 | 59.11754 | 31.79033 | 15187 ft | 341 kts | 311° |
| 2026-05-04 17:16 | 59.15104 | 31.72686 | 14318 ft | 337 kts | 311° |
| 2026-05-04 17:16 | 59.20100 | 31.63236 | 12956 ft | 330 kts | 311° |
| 2026-05-04 17:17 | 59.21743 | 31.60114 | 12536 ft | 327 kts | 311° |
| 2026-05-04 17:17 | 59.26405 | 31.51238 | 12072 ft | 292 kts | 310° |
| 2026-05-04 17:18 | 59.27830 | 31.48511 | 11830 ft | 284 kts | 310° |
| 2026-05-04 17:18 | 59.30612 | 31.43158 | 11013 ft | 280 kts | 310° |
| 2026-05-04 17:19 | 59.33372 | 31.37838 | 10218 ft | 276 kts | 310° |
| 2026-05-04 17:19 | 59.36103 | 31.32570 | 9424 ft | 273 kts | 310° |
| 2026-05-04 17:20 | 59.38790 | 31.27377 | 8594 ft | 269 kts | 310° |
| 2026-05-04 17:20 | 59.41423 | 31.22277 | 7793 ft | 266 kts | 310° |
| 2026-05-04 17:20 | 59.42733 | 31.19733 | 7408 ft | 264 kts | 310° |
| 2026-05-04 17:21 | 59.45325 | 31.14695 | 6709 ft | 258 kts | 310° |
| 2026-05-04 17:21 | 59.47874 | 31.09727 | 5922 ft | 256 kts | 309° |
| 2026-05-04 17:22 | 59.49133 | 31.07269 | 5504 ft | 255 kts | 310° |
| 2026-05-04 17:22 | 59.50399 | 31.04792 | 5026 ft | 257 kts | 310° |
| 2026-05-04 17:23 | 59.55671 | 31.02464 | 4618 ft | 276 kts | 355° |
| 2026-05-04 17:23 | 59.57568 | 31.02596 | 4636 ft | 276 kts | 356° |
| 2026-05-04 17:23 | 59.61297 | 31.04802 | 4620 ft | 289 kts | 24° |
| 2026-05-04 17:24 | 59.63068 | 31.06705 | 4620 ft | 289 kts | 24° |
| 2026-05-04 17:24 | 59.68509 | 31.11434 | 4614 ft | 278 kts | 2° |
| 2026-05-04 17:25 | 59.70428 | 31.11812 | 4615 ft | 276 kts | 359° |
| 2026-05-04 17:25 | 59.74269 | 31.12570 | 4613 ft | 277 kts | 360° |
| 2026-05-04 17:26 | 59.77994 | 31.11893 | 4612 ft | 263 kts | 336° |
| 2026-05-04 17:26 | 59.81734 | 31.05490 | 4596 ft | 240 kts | 277° |
| 2026-05-04 17:27 | 59.80938 | 30.99373 | 4436 ft | 238 kts | 233° |
| 2026-05-04 17:27 | 59.78721 | 30.94509 | 4257 ft | 239 kts | 231° |
| 2026-05-04 17:28 | 59.76503 | 30.89617 | 3927 ft | 238 kts | 231° |
| 2026-05-04 17:29 | 59.73166 | 30.82261 | 3432 ft | 239 kts | 231° |
| 2026-05-04 17:29 | 59.69822 | 30.74939 | 2923 ft | 238 kts | 230° |
| 2026-05-04 17:30 | 59.68662 | 30.66199 | 2508 ft | 234 kts | 292° |
| 2026-05-04 17:31 | 59.70879 | 30.62035 | 2502 ft | 204 kts | 320° |
| 2026-05-04 17:31 | 59.73735 | 30.58164 | 2517 ft | 131 kts | 315° |
| 2026-05-04 17:32 | 59.74833 | 30.55839 | 2510 ft | 110 kts | 289° |
| 2026-05-04 17:33 | 59.75569 | 30.51615 | 2433 ft | 108 kts | 281° |
| 2026-05-04 17:33 | 59.75784 | 30.50175 | 2301 ft | 109 kts | 282° |
| 2026-05-04 17:34 | 59.76415 | 30.45930 | 1887 ft | 110 kts | 283° |
| 2026-05-04 17:34 | 59.76632 | 30.44476 | 1750 ft | 112 kts | 283° |
| 2026-05-04 17:35 | 59.77290 | 30.40042 | 1292 ft | 110 kts | 283° |
| 2026-05-04 17:35 | 59.77747 | 30.36967 | 1008 ft | 117 kts | 285° |
| 2026-05-04 17:35 | 59.77977 | 30.35423 | 881 ft | 118 kts | 286° |
| 2026-05-04 17:36 | 59.78206 | 30.33875 | 737 ft | 116 kts | 287° |
| 2026-05-04 17:36 | 59.78445 | 30.32272 | 617 ft | 126 kts | 287° |
| 2026-05-04 17:36 | 59.78697 | 30.30537 | 433 ft | 136 kts | 286° |
| 2026-05-04 17:36 | 59.78948 | 30.28686 | 234 ft | 139 kts | 286° |
| 2026-05-04 17:37 | 59.79223 | 30.26930 | 88 ft | 122 kts | 287° |
| 2026-05-04 17:37 | 59.79396 | 30.25868 | 91 ft | 52 kts | 290° |
| 2026-05-04 17:37 | 59.79457 | 30.25474 | 90 ft | 25 kts | 282° |
| 2026-05-04 17:37 | 59.79505 | 30.25142 | 87 ft | 25 kts | 289° |
| 2026-05-04 17:38 | 59.79546 | 30.24811 | 88 ft | 24 kts | 287° |
| 2026-05-04 17:38 | 59.79603 | 30.24496 | 89 ft | 24 kts | 291° |
| 2026-05-04 17:38 | 59.79654 | 30.24173 | 87 ft | 25 kts | 286° |
| 2026-05-04 17:38 | 59.79709 | 30.23811 | 85 ft | 30 kts | 286° |
| 2026-05-04 17:39 | 59.79880 | 30.23102 | 85 ft | 17 kts | 314° |
| 2026-05-04 17:39 | 59.79968 | 30.23034 | 72 ft | 0 kts | 6° |
| 2026-05-04 17:40 | 59.79977 | 30.23051 | 83 ft | 4 kts | 49° |
| 2026-05-04 17:40 | 59.79972 | 30.23167 | 75 ft | 14 kts | 104° |
| 2026-05-04 17:41 | 59.79934 | 30.23413 | 86 ft | 23 kts | 107° |
| 2026-05-04 17:41 | 59.79885 | 30.23744 | 87 ft | 27 kts | 107° |
| 2026-05-04 17:41 | 59.79829 | 30.24114 | 86 ft | 29 kts | 104° |
| 2026-05-04 17:41 | 59.79771 | 30.24507 | 85 ft | 30 kts | 107° |
| 2026-05-04 17:42 | 59.79711 | 30.24920 | 89 ft | 32 kts | 107° |
| 2026-05-04 17:42 | 59.79646 | 30.25354 | 87 ft | 33 kts | 106° |
| 2026-05-04 17:42 | 59.79582 | 30.25806 | 92 ft | 34 kts | 108° |
| 2026-05-04 17:42 | 59.79537 | 30.26081 | 90 ft | 15 kts | 106° |
| 2026-05-04 17:43 | 59.79525 | 30.26295 | 89 ft | 13 kts | 56° |
| 2026-05-04 17:43 | 59.79587 | 30.26344 | 89 ft | 11 kts | 17° |
| 2026-05-04 17:43 | 59.79668 | 30.26391 | 90 ft | 12 kts | 17° |
| 2026-05-04 17:43 | 59.79745 | 30.26438 | 87 ft | 7 kts | 17° |
| 2026-05-04 17:44 | 59.79746 | 30.26439 | 87 ft | 0 kts | 17° |
| 2026-05-04 17:44 | 59.79760 | 30.26447 | 87 ft | 3 kts | 16° |
| 2026-05-04 17:44 | 59.79763 | 30.26449 | 90 ft | 1 kts | 16° |
| 2026-05-04 17:45 | 59.79724 | 30.26426 | 87 ft | 8 kts | 16° |
| 2026-05-04 17:45 | 59.79660 | 30.26390 | 87 ft | 10 kts | 14° |
| 2026-05-04 17:45 | 59.79592 | 30.26345 | 88 ft | 10 kts | 17° |
| 2026-05-04 17:45 | 59.79547 | 30.26321 | 88 ft | 1 kts | 16° |
| 2026-05-04 17:46 | 59.79549 | 30.26322 | 88 ft | 3 kts | 5° |
| 2026-05-04 17:46 | 59.79523 | 30.26286 | 88 ft | 5 kts | 46° |
| 2026-05-04 17:46 | 59.79528 | 30.26305 | 91 ft | 5 kts | 59° |
| 2026-05-04 17:46 | 59.79562 | 30.26377 | 88 ft | 0 kts | 31° |
| 2026-05-04 17:47 | 59.79564 | 30.26379 | 88 ft | 2 kts | 28° |
| 2026-05-04 17:47 | 59.79592 | 30.26406 | 86 ft | 0 kts | 23° |
| 2026-05-04 17:48 | 59.79609 | 30.26416 | 90 ft | 7 kts | 17° |
| 2026-05-04 17:48 | 59.79679 | 30.26457 | 90 ft | 14 kts | 17° |
| 2026-05-04 17:48 | 59.79793 | 30.26525 | 87 ft | 19 kts | 15° |
| 2026-05-04 17:48 | 59.79899 | 30.26586 | 87 ft | 16 kts | 20° |
| 2026-05-04 17:49 | 59.79945 | 30.26685 | 87 ft | 1 kts | 76° |
| 2026-05-04 17:49 | 59.79945 | 30.26726 | 86 ft | 5 kts | 95° |
| 2026-05-04 17:49 | 59.79943 | 30.26779 | 88 ft | 1 kts | 94° |
| 2026-05-04 17:49 | 59.79943 | 30.26804 | 90 ft | 1 kts | 93° |
| 2026-05-04 17:50 | 59.79943 | 30.26785 | 86 ft | 0 kts | 93° |